Time;durP1;ratioP1;P1;durP2;ratioP2;P2;SDS_P1;SDS_P2;PMS_P1;PMS_P2;Temp;Humidity;BMP_temperature;BMP_pressure;BME280_temperature;BME280_humidity;BME280_pressure;Samples;Min_cycle;Max_cycle;Signal;HPM_P1;HPM_P2
2024/03/30 00:00:51;;;;;;;;;1.00;0.00;;;;;22.31;40.19;99340.16;4910999;28;45344;-75
2024/03/30 00:03:17;;;;;;;;;0.00;0.00;;;;;22.32;40.43;99344.44;4903097;28;45400;-75
2024/03/30 00:05:43;;;;;;;;;0.00;0.00;;;;;22.34;40.30;99350.31;4918629;28;46201;-76
2024/03/30 00:08:09;;;;;;;;;1.00;1.00;;;;;22.33;40.28;99346.84;4918241;28;45385;-75
2024/03/30 00:10:39;;;;;;;;;0.00;0.00;;;;;22.27;40.51;99335.31;4917249;28;45362;-74
2024/03/30 00:13:10;;;;;;;;;0.00;0.00;;;;;22.31;40.38;99338.31;4910886;28;45433;-75
2024/03/30 00:15:38;;;;;;;;;0.00;0.00;;;;;22.31;40.05;99343.63;4908086;28;45372;-75
2024/03/30 00:18:04;;;;;;;;;0.00;0.00;;;;;22.30;40.45;99347.31;4915803;28;45392;-76
2024/03/30 00:20:30;;;;;;;;;0.00;0.00;;;;;22.28;40.54;99344.06;4917624;28;45589;-75
2024/03/30 00:22:56;;;;;;;;;0.67;0.67;;;;;22.27;40.40;99345.09;4908431;28;45428;-75
2024/03/30 00:25:25;;;;;;;;;0.00;0.00;;;;;22.29;40.69;99340.38;4918157;28;46898;-75
2024/03/30 00:27:51;;;;;;;;;0.00;0.00;;;;;22.28;40.36;99338.75;4905965;28;45395;-76
2024/03/30 00:30:17;;;;;;;;;0.00;0.00;;;;;22.28;40.75;99341.41;4918333;28;45367;-75
2024/03/30 00:32:43;;;;;;;;;0.00;0.00;;;;;22.30;40.04;99339.38;4917317;28;45335;-75
2024/03/30 00:35:08;;;;;;;;;0.00;0.00;;;;;22.29;40.07;99343.03;4918086;28;46263;-75
2024/03/30 00:37:33;;;;;;;;;0.33;0.00;;;;;22.23;40.50;99330.66;4918050;28;45466;-75
2024/03/30 00:39:59;;;;;;;;;0.00;0.00;;;;;22.24;39.99;99335.75;4918217;28;45343;-75
2024/03/30 00:42:26;;;;;;;;;1.00;0.33;;;;;22.29;40.05;99345.69;4918371;28;45348;-75
2024/03/30 00:44:52;;;;;;;;;1.00;0.00;;;;;22.28;39.89;99346.69;4918128;28;47030;-75
2024/03/30 00:47:18;;;;;;;;;0.00;0.00;;;;;22.22;40.05;99329.88;4917468;28;45433;-75
2024/03/30 00:49:43;;;;;;;;;0.00;0.00;;;;;22.27;40.00;99337.16;4917483;28;45378;-76
2024/03/30 00:52:09;;;;;;;;;0.00;0.00;;;;;22.17;39.92;99319.91;4917724;28;45367;-75
2024/03/30 00:54:34;;;;;;;;;0.00;0.00;;;;;22.26;40.24;99340.81;4917740;28;46364;-75
2024/03/30 00:57:00;;;;;;;;;0.00;0.00;;;;;22.27;40.40;99337.16;4917419;28;45454;-75
2024/03/30 00:59:25;;;;;;;;;0.00;0.00;;;;;22.25;40.41;99331.28;4918111;28;46010;-75
2024/03/30 01:01:50;;;;;;;;;0.00;0.00;;;;;22.22;40.20;99323.75;4904935;28;45355;-76
2024/03/30 01:04:16;;;;;;;;;0.00;0.00;;;;;22.27;39.83;99335.31;4917547;28;47126;-75
2024/03/30 01:06:43;;;;;;;;;0.00;0.00;;;;;22.27;40.46;99324.72;4917700;28;45331;-75
2024/03/30 01:09:08;;;;;;;;;0.67;0.00;;;;;22.25;40.32;99318.81;4917998;28;45375;-76
2024/03/30 01:11:36;;;;;;;;;0.00;0.00;;;;;22.26;39.84;99320.44;4917630;28;45320;-75
2024/03/30 01:14:02;;;;;;;;;0.00;0.00;;;;;22.28;40.14;99320.22;4917762;28;46368;-76
2024/03/30 01:16:28;;;;;;;;;0.00;0.00;;;;;22.27;39.83;99316.78;4917134;28;45375;-75
2024/03/30 01:18:54;;;;;;;;;0.00;0.00;;;;;22.27;40.25;99313.31;4912793;28;45434;-75
2024/03/30 01:21:19;;;;;;;;;0.00;0.00;;;;;22.26;39.83;99309.84;4915561;28;45463;-75
2024/03/30 01:23:45;;;;;;;;;1.00;0.00;;;;;22.27;39.79;99311.47;4916094;28;47271;-75
2024/03/30 01:26:12;;;;;;;;;1.00;1.00;;;;;22.27;40.07;99308.00;4917281;28;45494;-76
2024/03/30 01:28:42;;;;;;;;;0.00;0.00;;;;;22.26;39.67;99316.97;4917077;28;46178;-75
2024/03/30 01:31:12;;;;;;;;;0.00;0.00;;;;;22.17;39.99;99303.22;4913529;28;45413;-75
2024/03/30 01:33:39;;;;;;;;;0.00;0.00;;;;;22.25;40.07;99321.47;4910469;28;45333;-75
2024/03/30 01:36:04;;;;;;;;;0.00;0.00;;;;;22.25;39.88;99324.09;4916667;28;45395;-72
2024/03/30 01:38:30;;;;;;;;;0.00;0.00;;;;;22.26;40.02;99327.56;4917200;28;45205;-72
2024/03/30 01:40:55;;;;;;;;;0.00;0.00;;;;;22.22;40.17;99324.56;4916419;28;45555;-76
2024/03/30 01:43:21;;;;;;;;;0.00;0.00;;;;;22.16;40.37;99305.06;4917726;28;45547;-73
2024/03/30 01:45:47;;;;;;;;;0.00;0.00;;;;;22.25;39.78;99318.03;4920045;28;45239;-75
2024/03/30 01:48:13;;;;;;;;;0.00;0.00;;;;;22.25;40.35;99324.09;4920879;28;45298;-76
2024/03/30 01:50:42;;;;;;;;;0.00;0.00;;;;;22.25;39.77;99302.91;4919919;28;45996;-75
2024/03/30 01:53:11;;;;;;;;;0.00;0.00;;;;;22.25;39.97;99307.44;4920420;28;45344;-75
2024/03/30 01:55:40;;;;;;;;;0.00;0.00;;;;;22.15;39.89;99289.38;4920084;28;45327;-75
2024/03/30 01:58:07;;;;;;;;;0.00;0.00;;;;;22.23;39.89;99298.88;4919237;28;45516;-76
2024/03/30 02:00:33;;;;;;;;;0.00;0.00;;;;;22.22;39.97;99298.06;4919875;28;45569;-76
2024/03/30 02:02:59;;;;;;;;;0.67;0.00;;;;;22.21;40.18;99293.78;4919032;28;47244;-76
2024/03/30 02:05:26;;;;;;;;;0.00;0.00;;;;;22.22;40.24;99295.44;4920228;28;45405;-76
2024/03/30 02:07:52;;;;;;;;;1.00;0.00;;;;;22.22;40.29;99295.44;4920363;28;45742;-75
2024/03/30 02:10:18;;;;;;;;;0.67;0.00;;;;;22.22;39.81;99294.63;4920125;28;45338;-75
2024/03/30 02:12:44;;;;;;;;;0.00;0.00;;;;;22.07;40.14;99264.78;4918983;28;46118;-76
2024/03/30 02:15:09;;;;;;;;;1.33;0.00;;;;;22.23;40.11;99290.91;4920104;28;45381;-75
2024/03/30 02:17:35;;;;;;;;;0.00;0.00;;;;;22.23;40.21;99285.63;4908361;28;45347;-75
2024/03/30 02:20:02;;;;;;;;;0.00;0.00;;;;;22.22;39.74;99278.72;4913214;28;45409;-75
2024/03/30 02:22:28;;;;;;;;;0.00;0.00;;;;;22.22;39.70;99281.38;4919921;28;46079;-75
2024/03/30 02:24:53;;;;;;;;;0.00;0.00;;;;;22.21;39.68;99288.50;4920139;28;45340;-75
2024/03/30 02:27:19;;;;;;;;;0.00;0.00;;;;;22.22;39.54;99281.38;4919545;28;45355;-75
2024/03/30 02:29:49;;;;;;;;;0.00;0.00;;;;;22.21;39.85;99272.59;4919740;28;45371;-75
2024/03/30 02:32:15;;;;;;;;;0.00;0.00;;;;;22.11;39.93;99262.53;4920026;28;46349;-76
2024/03/30 02:34:41;;;;;;;;;0.00;0.00;;;;;22.12;40.07;99263.34;4915250;28;45412;-75
2024/03/30 02:37:07;;;;;;;;;0.00;0.00;;;;;22.19;40.06;99279.97;4913960;28;45364;-75
2024/03/30 02:39:32;;;;;;;;;0.00;0.00;;;;;22.18;39.62;99273.03;4919926;28;45397;-75
2024/03/30 02:41:58;;;;;;;;;1.67;0.33;;;;;22.19;40.22;99269.38;4919064;28;46949;-75
2024/03/30 02:44:23;;;;;;;;;0.00;0.00;;;;;22.20;40.20;99270.97;4916183;28;45540;-76
2024/03/30 02:46:48;;;;;;;;;0.00;0.00;;;;;22.20;39.87;99270.97;4914025;28;45215;-75
2024/03/30 02:49:14;;;;;;;;;0.00;0.00;;;;;22.20;40.08;99272.84;4919767;28;45445;-75
2024/03/30 02:51:40;;;;;;;;;1.00;0.00;;;;;22.20;39.60;99267.53;4919660;28;45453;-75
2024/03/30 02:54:05;;;;;;;;;0.00;0.00;;;;;22.13;39.64;99263.09;4918106;28;45606;-72
2024/03/30 02:56:32;;;;;;;;;0.00;0.00;;;;;22.20;40.22;99276.28;4919362;28;45249;-75
2024/03/30 02:58:57;;;;;;;;;0.00;0.00;;;;;22.21;39.94;99274.44;4919809;28;45492;-75
2024/03/30 03:01:23;;;;;;;;;0.00;0.00;;;;;22.20;40.08;99270.19;4919376;28;47226;-76
2024/03/30 03:03:48;;;;;;;;;0.00;0.00;;;;;22.19;39.63;99272.03;4919900;28;45474;-75
2024/03/30 03:06:13;;;;;;;;;0.00;0.00;;;;;21.88;40.06;99221.59;4918972;28;45367;-76
2024/03/30 03:08:39;;;;;;;;;0.00;0.00;;;;;22.16;39.76;99260.03;4919567;28;45407;-73
2024/03/30 03:11:04;;;;;;;;;0.00;0.00;;;;;22.17;40.09;99266.94;4918709;28;47002;-76
2024/03/30 03:13:29;;;;;;;;;0.00;0.00;;;;;22.18;39.66;99262.44;4906876;28;45672;-73
2024/03/30 03:15:55;;;;;;;;;0.00;0.00;;;;;22.12;39.76;99248.22;4919251;28;45532;-76
2024/03/30 03:18:21;;;;;;;;;0.67;0.00;;;;;22.17;39.87;99258.97;4919242;28;45478;-75
2024/03/30 03:20:46;;;;;;;;;0.00;0.00;;;;;22.17;40.19;99255.53;4918577;28;46187;-75
2024/03/30 03:23:11;;;;;;;;;0.00;0.00;;;;;22.16;39.90;99254.72;4919004;28;45366;-75
2024/03/30 03:25:37;;;;;;;;;0.00;0.00;;;;;22.18;40.08;99259.78;4918994;28;45372;-76
2024/03/30 03:28:02;;;;;;;;;0.00;0.00;;;;;22.15;39.69;99258.41;4909882;28;45324;-75
2024/03/30 03:30:30;;;;;;;;;0.00;0.00;;;;;22.11;40.16;99246.63;4918978;28;45326;-75
2024/03/30 03:32:55;;;;;;;;;1.00;0.00;;;;;22.16;40.28;99260.03;4919105;28;45331;-75
2024/03/30 03:35:21;;;;;;;;;1.00;0.00;;;;;22.16;39.67;99257.38;4909205;28;45492;-75
2024/03/30 03:37:46;;;;;;;;;0.33;0.00;;;;;22.16;39.75;99254.72;4918909;28;45331;-75
2024/03/30 03:40:12;;;;;;;;;0.00;0.00;;;;;22.16;39.56;99253.91;4914108;28;45398;-74
2024/03/30 03:42:37;;;;;;;;;0.00;0.00;;;;;22.16;40.09;99257.38;4913779;28;45358;-75
2024/03/30 03:45:03;;;;;;;;;0.00;0.00;;;;;22.16;39.65;99249.44;4912746;28;45387;-75
2024/03/30 03:47:28;;;;;;;;;0.00;0.00;;;;;22.12;39.93;99248.22;4918713;28;45527;-74
2024/03/30 03:49:53;;;;;;;;;0.00;0.00;;;;;22.15;39.99;99245.16;4917459;28;46893;-75
2024/03/30 03:52:19;;;;;;;;;0.00;0.00;;;;;22.15;39.93;99245.16;4918233;28;45406;-75
2024/03/30 03:54:44;;;;;;;;;0.67;0.00;;;;;22.15;39.64;99242.50;4917832;28;45504;-75
2024/03/30 03:57:09;;;;;;;;;0.00;0.00;;;;;22.14;40.03;99240.91;4907944;28;45614;-76
2024/03/30 03:59:34;;;;;;;;;0.00;0.00;;;;;22.16;39.84;99248.63;4917086;28;48261;-75
2024/03/30 04:02:00;;;;;;;;;0.33;0.00;;;;;22.16;40.10;99248.63;4918552;28;45535;-75
2024/03/30 04:04:25;;;;;;;;;0.00;0.00;;;;;22.15;40.06;99246.97;4915733;28;45440;-75
2024/03/30 04:06:50;;;;;;;;;1.00;0.00;;;;;22.13;39.41;99241.91;4917520;28;45445;-75
2024/03/30 04:09:17;;;;;;;;;0.00;0.00;;;;;22.04;40.12;99230.00;4918310;28;46101;-75
2024/03/30 04:11:43;;;;;;;;;0.00;0.00;;;;;22.11;39.68;99241.34;4918324;28;45434;-75
2024/03/30 04:14:08;;;;;;;;;1.00;1.00;;;;;22.14;39.80;99245.38;4918583;28;45499;-75
2024/03/30 04:16:33;;;;;;;;;0.00;0.00;;;;;22.15;39.72;99241.69;4917458;28;45369;-75
2024/03/30 04:18:59;;;;;;;;;0.00;0.00;;;;;22.15;39.82;99249.63;4917891;28;47226;-75
2024/03/30 04:21:26;;;;;;;;;0.00;0.00;;;;;22.07;39.50;99225.06;4915267;28;45365;-75
2024/03/30 04:23:51;;;;;;;;;0.33;0.00;;;;;22.14;39.60;99240.91;4918207;28;45329;-75
2024/03/30 04:26:18;;;;;;;;;0.00;0.00;;;;;22.06;39.66;99236.69;4917894;28;45431;-75
2024/03/30 04:28:44;;;;;;;;;3.00;0.00;;;;;22.14;39.66;99246.19;4917797;28;47167;-75
2024/03/30 04:31:10;;;;;;;;;0.00;0.00;;;;;22.14;39.95;99243.53;4915632;28;45463;-75
2024/03/30 04:33:35;;;;;;;;;0.00;0.00;;;;;22.13;39.84;99247.22;4914277;28;45497;-75
2024/03/30 04:36:03;;;;;;;;;0.00;0.00;;;;;22.12;39.79;99242.16;4907900;28;45330;-75
2024/03/30 04:38:29;;;;;;;;;0.00;0.00;;;;;22.13;40.15;99241.09;4915751;28;46422;-76
2024/03/30 04:41:07;;;;;;;;;0.00;0.00;;;;;22.14;39.78;99238.25;4916574;28;45392;-75
2024/03/30 04:43:34;;;;;;;;;0.00;0.00;;;;;22.14;40.10;99240.09;4918265;28;45458;-74
2024/03/30 04:46:00;;;;;;;;;0.00;0.00;;;;;22.13;39.70;99231.31;4905028;28;45464;-75
2024/03/30 04:48:28;;;;;;;;;0.00;0.00;;;;;22.13;39.62;99233.97;4917689;28;47087;-75
2024/03/30 04:50:54;;;;;;;;;0.00;0.00;;;;;22.13;39.41;99244.56;4918082;28;45383;-75
2024/03/30 04:53:24;;;;;;;;;0.00;0.00;;;;;22.14;39.42;99250.69;4917395;28;45419;-75
2024/03/30 04:55:54;;;;;;;;;0.00;0.00;;;;;22.13;39.73;99249.88;4917854;28;45415;-75
2024/03/30 04:58:22;;;;;;;;;0.33;0.33;;;;;22.13;39.45;99251.69;4910583;28;45372;-75
2024/03/30 05:00:51;;;;;;;;;0.00;0.00;;;;;22.13;39.93;99244.56;4918027;28;45429;-76
2024/03/30 05:03:17;;;;;;;;;0.00;0.00;;;;;22.07;39.89;99238.31;4917827;28;45545;-75
2024/03/30 05:05:46;;;;;;;;;0.00;0.00;;;;;22.13;39.81;99247.22;4914428;28;45472;-71
2024/03/30 05:08:12;;;;;;;;;0.00;0.00;;;;;22.14;39.88;99251.50;4917217;28;46591;-76
2024/03/30 05:10:41;;;;;;;;;0.00;0.00;;;;;22.14;39.45;99245.38;4917772;28;45923;-73
2024/03/30 05:13:07;;;;;;;;;0.00;0.00;;;;;22.14;39.74;99248.84;4917841;28;45281;-75
2024/03/30 05:15:35;;;;;;;;;0.00;0.00;;;;;22.05;39.45;99237.72;4917790;28;45555;-75
2024/03/30 05:18:00;;;;;;;;;0.00;0.00;;;;;22.10;39.47;99252.94;4918748;28;45327;-75
2024/03/30 05:23:09;;;;;;;;;0.00;0.00;;;;;22.14;39.76;99267.38;4920779;28;45446;-75
2024/03/30 05:25:34;;;;;;;;;0.00;0.00;;;;;22.12;39.76;99260.69;4921014;28;45396;-75
2024/03/30 05:27:59;;;;;;;;;0.33;0.00;;;;;22.07;39.80;99253.38;4920644;28;46143;-75
2024/03/30 05:30:25;;;;;;;;;0.00;0.00;;;;;22.13;39.29;99260.47;4920923;28;45276;-75
2024/03/30 05:32:50;;;;;;;;;0.00;0.00;;;;;22.14;39.28;99258.63;4920754;28;45520;-75
2024/03/30 05:35:16;;;;;;;;;0.00;0.00;;;;;22.14;39.90;99269.22;4920962;28;45232;-75
2024/03/30 05:37:43;;;;;;;;;0.00;0.00;;;;;22.13;39.26;99260.47;4920397;28;45398;-74
2024/03/30 05:40:09;;;;;;;;;0.00;0.00;;;;;22.14;40.03;99271.88;4920867;28;45287;-75
2024/03/30 05:42:35;;;;;;;;;0.00;0.00;;;;;22.10;39.79;99270.66;4920440;28;45514;-75
2024/03/30 05:45:01;;;;;;;;;0.00;0.00;;;;;22.14;39.60;99280.63;4920977;28;45511;-75
2024/03/30 05:47:27;;;;;;;;;0.00;0.00;;;;;22.10;39.52;99278.63;4920237;28;46214;-75
2024/03/30 05:49:53;;;;;;;;;0.00;0.00;;;;;22.13;39.50;99286.13;4919890;28;45554;-75
2024/03/30 05:52:19;;;;;;;;;0.00;0.00;;;;;22.12;39.76;99274.72;4920192;28;45339;-75
2024/03/30 05:54:44;;;;;;;;;0.00;0.00;;;;;22.14;39.57;99274.50;4919161;28;45304;-75
2024/03/30 05:57:11;;;;;;;;;0.00;0.00;;;;;22.09;40.09;99269.06;4919318;28;46097;-75
2024/03/30 05:59:36;;;;;;;;;0.00;0.00;;;;;22.07;39.48;99269.25;4910055;28;46590;-75
2024/03/30 06:02:02;;;;;;;;;0.00;0.00;;;;;22.12;40.17;99277.38;4918135;28;45394;-75
2024/03/30 06:04:27;;;;;;;;;0.00;0.00;;;;;22.12;39.53;99274.72;4918011;28;46057;-75
2024/03/30 06:06:53;;;;;;;;;1.00;0.00;;;;;22.07;39.83;99274.56;4918720;28;46215;-75
2024/03/30 06:09:18;;;;;;;;;0.00;0.00;;;;;22.06;39.46;99263.19;4920405;28;45373;-75
2024/03/30 06:11:44;;;;;;;;;0.00;0.00;;;;;21.99;39.70;99267.72;4920387;28;45471;-75
2024/03/30 06:14:09;;;;;;;;;0.00;0.00;;;;;22.13;39.47;99288.78;4920281;28;45458;-76
2024/03/30 06:16:35;;;;;;;;;0.00;0.00;;;;;22.12;39.56;99289.81;4919505;28;46155;-76
2024/03/30 06:19:00;;;;;;;;;0.00;0.00;;;;;22.11;40.03;99293.50;4917479;28;45401;-75
2024/03/30 06:21:26;;;;;;;;;0.00;0.00;;;;;22.12;39.65;99306.50;4917974;28;45517;-75
2024/03/30 06:23:52;;;;;;;;;0.00;0.00;;;;;22.12;39.48;99295.13;4919682;28;45553;-75
2024/03/30 06:26:18;;;;;;;;;0.00;0.00;;;;;22.06;39.95;99292.31;4919657;28;46338;-75
2024/03/30 06:28:43;;;;;;;;;2.00;0.00;;;;;22.11;39.50;99288.19;4919114;28;45515;-75
2024/03/30 06:31:09;;;;;;;;;0.00;0.00;;;;;22.11;40.00;99293.50;4919520;28;45999;-75
2024/03/30 06:33:34;;;;;;;;;0.00;0.00;;;;;22.11;39.86;99285.53;4920256;28;45288;-75
2024/03/30 06:35:59;;;;;;;;;0.67;0.67;;;;;22.09;39.51;99288.41;4919336;28;47202;-75
2024/03/30 06:38:24;;;;;;;;;0.00;0.00;;;;;22.09;39.87;99291.06;4920209;28;45305;-76
2024/03/30 06:43:43;;;;;;;;;0.00;0.00;;;;;22.10;39.86;99303.28;4919657;28;45459;-75
2024/03/30 06:46:08;;;;;;;;;0.33;0.33;;;;;22.03;39.52;99297.22;4919822;28;46295;-76
2024/03/30 06:48:34;;;;;;;;;0.00;0.00;;;;;22.09;39.34;99306.97;4919263;28;45328;-76
2024/03/30 06:51:00;;;;;;;;;0.00;0.00;;;;;22.06;40.08;99302.09;4919302;28;45340;-72
2024/03/30 06:53:25;;;;;;;;;0.00;0.00;;;;;22.08;39.41;99305.31;4919280;28;45373;-71
2024/03/30 06:55:50;;;;;;;;;0.00;0.00;;;;;22.01;39.63;99304.59;4919845;28;45427;-73
2024/03/30 06:58:16;;;;;;;;;0.00;0.00;;;;;22.09;39.95;99320.22;4917985;28;45510;-75
2024/03/30 07:00:42;;;;;;;;;0.67;0.00;;;;;22.06;39.52;99305.56;4918798;28;45578;-76
2024/03/30 07:03:08;;;;;;;;;0.00;0.00;;;;;22.03;39.43;99303.34;4913174;28;45444;-75
2024/03/30 07:05:33;;;;;;;;;0.00;0.00;;;;;22.09;39.88;99317.56;4907767;28;46574;-76
2024/03/30 07:07:59;;;;;;;;;0.00;0.00;;;;;22.06;39.77;99310.84;4909277;28;45379;-75
2024/03/30 07:10:24;;;;;;;;;1.00;0.00;;;;;22.10;39.38;99324.47;4918893;28;45398;-75
2024/03/30 07:12:54;;;;;;;;;0.00;0.00;;;;;22.04;39.73;99309.44;4919535;28;45504;-75
2024/03/30 07:15:20;;;;;;;;;0.00;0.00;;;;;22.10;39.28;99313.88;4919448;28;46469;-75
2024/03/30 07:17:45;;;;;;;;;0.00;0.00;;;;;22.09;39.71;99306.97;4918120;28;45458;-75
2024/03/30 07:20:11;;;;;;;;;0.00;0.00;;;;;22.09;39.36;99306.16;4918906;28;45550;-75
2024/03/30 07:22:36;;;;;;;;;0.00;0.00;;;;;22.04;39.55;99304.16;4919138;28;45292;-75
2024/03/30 07:25:01;;;;;;;;;0.00;0.00;;;;;22.00;39.56;99301.13;4918690;28;45288;-76
2024/03/30 07:27:27;;;;;;;;;0.00;0.00;;;;;22.10;39.54;99315.69;4918945;28;45412;-75
2024/03/30 07:29:52;;;;;;;;;0.00;0.00;;;;;22.07;39.94;99309.81;4919472;28;45459;-75
2024/03/30 07:32:18;;;;;;;;;0.00;0.00;;;;;22.09;39.98;99320.22;4918761;28;45446;-75
2024/03/30 07:34:46;;;;;;;;;0.00;0.00;;;;;21.97;39.47;99304.19;4918613;28;45376;-75
2024/03/30 07:37:11;;;;;;;;;0.00;0.00;;;;;21.98;39.85;99313.78;4918167;28;45614;-74
2024/03/30 07:39:37;;;;;;;;;0.00;0.00;;;;;22.09;40.02;99333.44;4919197;28;45427;-75
2024/03/30 07:42:02;;;;;;;;;0.00;0.00;;;;;22.09;39.48;99324.69;4918900;28;45373;-75
2024/03/30 07:44:29;;;;;;;;;0.00;0.00;;;;;22.09;39.88;99327.34;4918182;28;46314;-76
2024/03/30 07:46:54;;;;;;;;;0.00;0.00;;;;;22.09;39.73;99337.94;4917841;28;45593;-75
2024/03/30 07:49:20;;;;;;;;;0.00;0.00;;;;;22.04;39.49;99333.28;4914764;28;45419;-75
2024/03/30 07:51:45;;;;;;;;;0.00;0.00;;;;;22.09;39.98;99353.81;4913858;28;45417;-76
2024/03/30 07:54:11;;;;;;;;;0.00;0.00;;;;;22.08;39.88;99355.66;4918431;28;47159;-75
2024/03/30 07:56:38;;;;;;;;;0.00;0.00;;;;;22.09;39.93;99367.88;4918641;28;45407;-75
2024/03/30 07:59:03;;;;;;;;;0.00;0.00;;;;;22.08;39.93;99382.13;4918913;28;45494;-75
2024/03/30 08:01:31;;;;;;;;;0.00;0.00;;;;;22.09;39.85;99391.72;4917914;28;45447;-75
2024/03/30 08:03:56;;;;;;;;;0.00;0.00;;;;;22.02;39.85;99375.03;4918757;28;46373;-75
2024/03/30 08:06:22;;;;;;;;;0.00;0.00;;;;;22.00;39.61;99377.09;4914529;28;45490;-75
2024/03/30 08:08:47;;;;;;;;;2.00;0.00;;;;;22.09;39.87;99383.78;4918900;28;45810;-75
2024/03/30 08:11:12;;;;;;;;;0.67;0.00;;;;;22.09;39.95;99380.31;4918649;28;45351;-75
2024/03/30 08:13:38;;;;;;;;;0.00;0.00;;;;;22.07;39.94;99381.31;4918460;28;45394;-75
2024/03/30 08:16:03;;;;;;;;;0.00;0.00;;;;;22.09;40.02;99381.13;4914000;28;45430;-76
2024/03/30 08:18:28;;;;;;;;;0.00;0.00;;;;;22.07;39.40;99388.44;4911886;28;45301;-75
2024/03/30 08:20:54;;;;;;;;;0.00;0.00;;;;;22.07;39.49;99394.56;4911509;28;45343;-76
2024/03/30 08:23:21;;;;;;;;;0.00;0.00;;;;;21.98;39.95;99387.09;4917953;28;45358;-75
2024/03/30 08:25:47;;;;;;;;;0.33;0.33;;;;;22.02;39.71;99388.28;4912662;28;45403;-75
2024/03/30 08:28:12;;;;;;;;;0.00;0.00;;;;;22.07;39.91;99394.56;4914324;28;45580;-75
2024/03/30 08:30:38;;;;;;;;;0.00;0.00;;;;;22.04;39.77;99386.25;4912448;28;45448;-75
2024/03/30 08:33:03;;;;;;;;;0.00;0.00;;;;;22.03;39.99;99385.44;4918513;28;45428;-75
2024/03/30 08:35:28;;;;;;;;;2.00;0.00;;;;;22.03;39.43;99403.16;4908658;28;45384;-75
2024/03/30 08:37:54;;;;;;;;;0.33;0.00;;;;;22.05;39.90;99412.50;4918574;28;45428;-75
2024/03/30 08:40:19;;;;;;;;;0.00;0.00;;;;;22.09;39.35;99425.34;4917894;28;45467;-75
2024/03/30 08:42:45;;;;;;;;;0.00;0.00;;;;;22.03;39.81;99413.75;4918361;28;46230;-75
2024/03/30 08:45:11;;;;;;;;;1.00;0.00;;;;;22.06;39.77;99423.94;4917792;28;45407;-75
2024/03/30 08:47:36;;;;;;;;;0.00;0.00;;;;;21.97;39.62;99415.41;4917548;28;45561;-75
2024/03/30 08:50:01;;;;;;;;;0.00;0.00;;;;;22.10;39.27;99437.53;4918192;28;46208;-75
2024/03/30 08:52:27;;;;;;;;;0.00;0.00;;;;;22.09;39.25;99425.34;4907610;28;45500;-76
2024/03/30 08:54:52;;;;;;;;;0.00;0.00;;;;;22.10;39.71;99426.94;4922403;28;45302;-75
2024/03/30 08:57:19;;;;;;;;;2.00;0.00;;;;;22.10;39.34;99426.94;4923894;28;45523;-75
2024/03/30 08:59:46;;;;;;;;;0.00;0.00;;;;;22.10;39.38;99437.53;4924138;28;45324;-76
2024/03/30 09:02:12;;;;;;;;;0.00;0.00;;;;;22.10;39.56;99434.88;4911451;28;47077;-75
2024/03/30 09:04:37;;;;;;;;;0.00;0.00;;;;;22.10;40.06;99442.81;4920471;28;45445;-75
2024/03/30 09:07:03;;;;;;;;;0.00;0.00;;;;;22.02;39.26;99428.81;4924188;28;45318;-75
2024/03/30 09:09:29;;;;;;;;;0.00;0.00;;;;;22.10;39.38;99450.78;4924667;28;45515;-75
2024/03/30 09:11:56;;;;;;;;;0.00;0.00;;;;;22.05;39.87;99432.88;4923871;28;47014;-75
2024/03/30 09:14:22;;;;;;;;;0.00;0.00;;;;;22.10;39.52;99437.53;4923731;28;45392;-75
2024/03/30 09:16:48;;;;;;;;;0.00;0.00;;;;;22.10;40.02;99442.81;4923663;28;45386;-74
2024/03/30 09:19:14;;;;;;;;;0.00;0.00;;;;;22.09;39.46;99444.69;4921893;28;45225;-75
2024/03/30 09:21:40;;;;;;;;;0.00;0.00;;;;;22.09;39.85;99441.22;4924136;28;46460;-75
2024/03/30 09:24:05;;;;;;;;;0.00;0.00;;;;;22.09;39.77;99439.41;4923727;28;45437;-76
2024/03/30 09:26:31;;;;;;;;;0.00;0.00;;;;;22.07;39.52;99438.78;4919886;28;45208;-75
2024/03/30 09:28:56;;;;;;;;;0.00;0.00;;;;;22.08;40.00;99443.06;4922707;28;45490;-75
2024/03/30 09:31:21;;;;;;;;;0.00;0.00;;;;;22.10;39.92;99453.44;4923704;28;45431;-75
2024/03/30 09:33:47;;;;;;;;;0.00;0.00;;;;;22.05;39.85;99435.53;4924127;28;45418;-75
2024/03/30 09:36:17;;;;;;;;;0.00;0.00;;;;;22.07;39.84;99447.53;4914200;28;45368;-75
2024/03/30 09:38:42;;;;;;;;;0.00;0.00;;;;;22.11;39.65;99447.13;4922098;28;45551;-75
2024/03/30 09:41:12;;;;;;;;;0.00;0.00;;;;;22.11;39.43;99442.63;4924003;28;47271;-76
2024/03/30 09:43:39;;;;;;;;;0.00;0.00;;;;;22.11;39.35;99450.56;4937741;28;45394;-76
2024/03/30 09:46:05;;;;;;;;;2.00;0.67;;;;;22.11;39.58;99447.13;4923926;28;45639;-75
2024/03/30 09:48:33;;;;;;;;;0.00;0.00;;;;;22.10;39.48;99451.59;4923720;28;45521;-75
2024/03/30 09:50:59;;;;;;;;;0.00;0.00;;;;;22.13;39.52;99458.28;4922932;28;46933;-74
2024/03/30 09:53:26;;;;;;;;;0.00;0.00;;;;;22.05;39.54;99444.28;4918061;28;45217;-75
2024/03/30 09:55:53;;;;;;;;;0.00;0.00;;;;;22.14;39.30;99462.59;4923723;28;45304;-75
2024/03/30 09:58:19;;;;;;;;;0.00;0.00;;;;;22.14;39.71;99468.69;4922162;28;45407;-75
2024/03/30 10:00:46;;;;;;;;;0.00;0.00;;;;;22.15;39.74;99472.94;4923449;28;46202;-75
2024/03/30 10:03:11;;;;;;;;;0.00;0.00;;;;;22.16;39.73;99471.13;4923425;28;46158;-75
2024/03/30 10:05:40;;;;;;;;;0.00;0.00;;;;;22.17;39.89;99478.06;4916174;28;45381;-75
2024/03/30 10:08:08;;;;;;;;;0.00;0.00;;;;;22.18;39.88;99477.00;4920498;28;45225;-75
2024/03/30 10:10:33;;;;;;;;;0.00;0.00;;;;;22.15;39.34;99475.59;4920136;28;47043;-74
2024/03/30 10:13:24;;;;;;;;;0.00;0.00;;;;;22.19;39.43;99483.94;4919624;28;45375;-74
2024/03/30 10:15:52;;;;;;;;;0.00;0.00;;;;;22.15;39.55;99469.47;4920248;28;45301;-74
2024/03/30 10:18:18;;;;;;;;;0.00;0.00;;;;;22.18;39.28;99469.06;4920140;28;46745;-74
2024/03/30 10:20:43;;;;;;;;;0.00;0.00;;;;;22.21;39.81;99468.63;4934095;28;46264;-74
2024/03/30 10:23:09;;;;;;;;;0.00;0.00;;;;;22.21;39.75;99470.47;4919803;28;45511;-75
2024/03/30 10:25:35;;;;;;;;;1.00;0.00;;;;;22.22;39.73;99469.47;4920381;28;45444;-75
2024/03/30 10:28:00;;;;;;;;;0.00;0.00;;;;;22.23;39.48;99473.72;4919759;28;46124;-75
2024/03/30 10:30:26;;;;;;;;;1.00;1.00;;;;;22.23;39.81;99474.53;4915261;28;45458;-75
2024/03/30 10:32:54;;;;;;;;;0.67;0.67;;;;;22.24;39.33;99484.13;4919195;28;45420;-75
2024/03/30 10:35:21;;;;;;;;;0.00;0.00;;;;;22.25;39.40;99482.28;4919503;28;45429;-75
2024/03/30 10:37:51;;;;;;;;;1.00;0.00;;;;;22.25;39.80;99477.78;4919750;28;45285;-74
2024/03/30 10:40:16;;;;;;;;;0.00;0.00;;;;;22.25;39.29;99477.78;4917944;28;45503;-75
2024/03/30 10:42:42;;;;;;;;;1.00;1.00;;;;;22.25;39.61;99475.13;4919643;28;45904;-75
2024/03/30 10:45:08;;;;;;;;;0.00;0.00;;;;;22.18;39.81;99466.41;4920127;28;45383;-75
2024/03/30 10:47:35;;;;;;;;;0.00;0.00;;;;;22.28;39.66;99474.69;4919896;28;45435;-75
2024/03/30 10:50:01;;;;;;;;;0.00;0.00;;;;;22.28;39.25;99473.88;4918827;28;45498;-75
2024/03/30 10:52:27;;;;;;;;;0.00;0.00;;;;;22.29;39.78;99476.34;4919283;28;45310;-75
2024/03/30 10:54:54;;;;;;;;;0.00;0.00;;;;;22.29;39.52;99464.91;4915452;28;45395;-74
2024/03/30 10:57:21;;;;;;;;;0.00;0.00;;;;;22.29;39.37;99462.25;4907166;28;45348;-74
2024/03/30 10:59:48;;;;;;;;;0.00;0.00;;;;;22.30;39.83;99466.56;4919286;28;46186;-74
2024/03/30 11:02:20;;;;;;;;;0.00;0.00;;;;;22.32;39.77;99466.31;4919765;28;45439;-75
2024/03/30 11:04:45;;;;;;;;;0.00;0.00;;;;;22.26;39.85;99471.47;4916971;28;45426;-72
2024/03/30 11:07:15;;;;;;;;;0.00;0.00;;;;;22.27;39.69;99465.16;4917699;28;45448;-75
2024/03/30 11:09:42;;;;;;;;;2.00;1.00;;;;;22.33;39.49;99467.97;4918532;28;46370;-74
2024/03/30 11:12:12;;;;;;;;;0.00;0.00;;;;;22.29;39.29;99449.84;4919230;28;45439;-74
2024/03/30 11:14:38;;;;;;;;;0.00;0.00;;;;;22.29;39.66;99446.38;4919152;28;45514;-74
2024/03/30 11:17:28;;;;;;;;;0.00;0.00;;;;;22.39;39.07;99456.47;4918153;28;45399;-81
2024/03/30 11:20:03;;;;;;;;;0.00;0.00;;;;;22.37;38.90;99453.25;4917356;28;46157;-80
2024/03/30 11:22:47;;;;;;;;;0.00;0.00;;;;;22.44;39.11;99458.47;4918941;28;45383;-79
2024/03/30 11:25:13;;;;;;;;;0.00;0.00;;;;;22.38;39.37;99438.94;4919494;28;45413;-79
2024/03/30 11:28:15;;;;;;;;;0.00;0.00;;;;;22.51;39.05;99456.56;4918971;28;45306;-80
2024/03/30 11:31:04;;;;;;;;;0.00;0.00;;;;;22.52;38.35;99459.03;4918783;28;45423;-73
2024/03/30 11:33:36;;;;;;;;;0.00;0.00;;;;;22.40;37.86;99434.25;4910449;28;45352;-75
2024/03/30 11:36:26;;;;;;;;;0.00;0.00;;;;;22.49;38.24;99451.50;4916431;28;45375;-74